Time;durP1;ratioP1;P1;durP2;ratioP2;P2;SDS_P1;SDS_P2;PMS_P1;PMS_P2;Temp;Humidity;BMP_temperature;BMP_pressure;BME280_temperature;BME280_humidity;BME280_pressure;Samples;Min_cycle;Max_cycle;Signal;HPM_P1;HPM_P2
2023/12/19 00:00:11;;;;;;;15.70;10.25;;;6.10;99.90;;;;;;5048197;28;20035;-52
2023/12/19 00:02:37;;;;;;;17.45;11.05;;;6.20;99.90;;;;;;5035948;28;20025;-51
2023/12/19 00:05:03;;;;;;;15.43;10.00;;;6.20;99.90;;;;;;5029293;28;20035;-51
2023/12/19 00:07:29;;;;;;;16.02;10.43;;;6.20;99.90;;;;;;5031206;28;20048;-54
2023/12/19 00:09:55;;;;;;;17.60;10.80;;;6.10;99.90;;;;;;5037282;28;20100;-54
2023/12/19 00:12:21;;;;;;;17.80;10.05;;;6.20;99.90;;;;;;5041397;28;20522;-54
2023/12/19 00:14:46;;;;;;;15.90;9.90;;;6.20;99.90;;;;;;5030322;28;20064;-50
2023/12/19 00:17:12;;;;;;;17.83;9.95;;;6.20;99.90;;;;;;5029776;28;20179;-54
2023/12/19 00:19:38;;;;;;;15.82;9.75;;;6.20;99.90;;;;;;5030533;28;20029;-54
2023/12/19 00:22:03;;;;;;;20.58;10.40;;;6.20;99.90;;;;;;5028925;28;20138;-54
2023/12/19 00:24:29;;;;;;;17.13;9.98;;;6.20;99.90;;;;;;5030087;28;20034;-53
2023/12/19 00:26:54;;;;;;;15.02;9.90;;;6.20;99.90;;;;;;5029585;28;20014;-53
2023/12/19 00:29:20;;;;;;;20.73;11.82;;;6.20;99.90;;;;;;5030026;28;20097;-54
2023/12/19 00:31:46;;;;;;;19.20;11.60;;;6.30;99.90;;;;;;5030226;28;20479;-54
2023/12/19 00:34:13;;;;;;;16.05;10.38;;;6.30;99.90;;;;;;5030344;28;20095;-53
2023/12/19 00:36:39;;;;;;;16.35;10.43;;;6.30;99.90;;;;;;5030051;28;20071;-52
2023/12/19 00:39:04;;;;;;;16.10;10.48;;;6.30;99.90;;;;;;5030377;28;20096;-54
2023/12/19 00:41:30;;;;;;;16.38;10.48;;;6.30;99.90;;;;;;5033253;28;20070;-52
2023/12/19 00:43:56;;;;;;;17.05;10.43;;;6.30;99.90;;;;;;5042839;28;20021;-54
2023/12/19 00:46:22;;;;;;;16.58;10.48;;;6.30;99.90;;;;;;5047574;28;20055;-54
2023/12/19 00:48:47;;;;;;;16.35;10.18;;;6.30;99.90;;;;;;5049004;28;20017;-54
2023/12/19 00:51:13;;;;;;;18.52;10.50;;;6.30;99.90;;;;;;5048457;28;20024;-51
2023/12/19 00:53:39;;;;;;;19.60;10.82;;;6.30;99.90;;;;;;5034484;28;20057;-51
2023/12/19 00:56:09;;;;;;;18.48;11.45;;;6.20;99.90;;;;;;5029119;28;20566;-54
2023/12/19 00:58:38;;;;;;;18.10;11.18;;;6.20;99.90;;;;;;5013773;28;20432;-53
2023/12/19 01:01:07;;;;;;;19.35;10.13;;;6.20;99.90;;;;;;5029707;28;20048;-51
2023/12/19 01:03:34;;;;;;;19.52;11.35;;;6.20;99.90;;;;;;5031731;28;20037;-51
2023/12/19 01:06:02;;;;;;;16.80;11.25;;;6.20;99.90;;;;;;5044445;28;20032;-50
2023/12/19 01:08:27;;;;;;;20.67;11.23;;;6.20;99.90;;;;;;5045214;28;20042;-50
2023/12/19 01:10:54;;;;;;;21.02;11.75;;;6.20;99.90;;;;;;5036089;28;20021;-54
2023/12/19 01:13:20;;;;;;;21.42;11.68;;;6.20;99.90;;;;;;5029557;28;20022;-53
2023/12/19 01:15:45;;;;;;;18.65;13.05;;;6.10;99.90;;;;;;5028714;28;20034;-54
2023/12/19 01:18:11;;;;;;;20.17;11.70;;;6.20;99.90;;;;;;5028799;28;20056;-53
2023/12/19 01:20:38;;;;;;;20.33;11.23;;;6.20;99.90;;;;;;5031337;28;20474;-52
2023/12/19 01:23:04;;;;;;;21.58;11.93;;;6.20;99.90;;;;;;5049167;28;20029;-51
2023/12/19 01:25:29;;;;;;;20.67;11.75;;;6.20;99.90;;;;;;5048402;28;20047;-53
2023/12/19 01:27:55;;;;;;;19.48;12.40;;;6.20;99.90;;;;;;5049541;28;20478;-53
2023/12/19 01:30:20;;;;;;;16.95;11.45;;;6.20;99.90;;;;;;5048955;28;20274;-53
2023/12/19 01:32:46;;;;;;;20.30;12.20;;;6.20;99.90;;;;;;5049072;28;20500;-54
2023/12/19 01:35:12;;;;;;;20.27;12.23;;;6.20;99.90;;;;;;5031002;28;20017;-53
2023/12/19 01:37:37;;;;;;;20.88;12.65;;;6.30;99.90;;;;;;5048685;28;20032;-54
2023/12/19 01:40:07;;;;;;;21.48;11.68;;;6.30;99.90;;;;;;5049632;28;20086;-51
2023/12/19 01:42:33;;;;;;;18.33;12.20;;;6.30;99.90;;;;;;5029356;28;20014;-53
2023/12/19 01:45:13;;;;;;;23.75;12.93;;;6.30;99.90;;;;;;5029100;28;20572;-51
2023/12/19 01:47:44;;;;;;;20.20;13.25;;;6.30;99.90;;;;;;5029603;28;20029;-53
2023/12/19 01:50:14;;;;;;;20.98;12.95;;;6.30;99.90;;;;;;5029068;28;20025;-52
2023/12/19 01:52:43;;;;;;;19.52;12.18;;;6.30;99.90;;;;;;5029699;28;20100;-54
2023/12/19 01:55:10;;;;;;;20.77;13.52;;;6.20;99.90;;;;;;5029456;28;20024;-54
2023/12/19 01:57:36;;;;;;;23.85;12.70;;;6.20;99.90;;;;;;5029006;28;20017;-54
2023/12/19 02:00:03;;;;;;;20.30;13.02;;;6.20;99.90;;;;;;5029521;28;20441;-53
2023/12/19 02:02:29;;;;;;;21.45;13.00;;;6.20;99.90;;;;;;5029748;28;20058;-53
2023/12/19 02:04:58;;;;;;;22.40;13.45;;;6.30;99.90;;;;;;5011404;28;20052;-53
2023/12/19 02:07:24;;;;;;;25.27;14.35;;;6.20;99.90;;;;;;5029254;28;20025;-51
2023/12/19 02:09:53;;;;;;;26.95;12.90;;;6.20;99.90;;;;;;5029514;28;20486;-53
2023/12/19 02:12:19;;;;;;;24.08;13.90;;;6.20;99.90;;;;;;5012533;28;20022;-53
2023/12/19 02:14:44;;;;;;;24.35;13.88;;;6.20;99.90;;;;;;5029264;28;20333;-53
2023/12/19 02:17:11;;;;;;;24.33;14.38;;;6.20;99.90;;;;;;5029095;28;20037;-52
2023/12/19 02:19:48;;;;;;;21.88;14.27;;;6.20;99.90;;;;;;5029632;28;20379;-52
2023/12/19 02:22:14;;;;;;;22.10;13.80;;;6.20;99.90;;;;;;5029733;28;20026;-53
2023/12/19 02:24:40;;;;;;;25.55;14.85;;;6.20;99.90;;;;;;5029190;28;20029;-53
2023/12/19 02:27:06;;;;;;;23.98;13.95;;;6.20;99.90;;;;;;5029035;28;20480;-54
2023/12/19 02:29:33;;;;;;;22.45;14.77;;;6.20;99.90;;;;;;5029763;28;20038;-53
2023/12/19 02:31:59;;;;;;;25.67;15.07;;;6.20;99.90;;;;;;5028700;28;20017;-54
2023/12/19 02:34:25;;;;;;;22.65;14.52;;;6.20;99.90;;;;;;5029557;28;20065;-54
2023/12/19 02:36:51;;;;;;;29.77;15.73;;;6.20;99.90;;;;;;5028716;28;20111;-52
2023/12/19 02:39:16;;;;;;;26.63;15.65;;;6.20;99.90;;;;;;5029384;28;20022;-52
2023/12/19 02:41:43;;;;;;;26.27;15.40;;;6.20;99.90;;;;;;5029858;28;20017;-54
2023/12/19 02:44:09;;;;;;;27.20;15.05;;;6.20;99.90;;;;;;5028215;28;20029;-53
2023/12/19 02:46:35;;;;;;;23.90;13.98;;;6.20;99.90;;;;;;5019952;28;20367;-52
2023/12/19 02:49:01;;;;;;;27.15;15.95;;;6.20;99.90;;;;;;5028640;28;20032;-53
2023/12/19 02:51:27;;;;;;;23.45;14.38;;;6.20;99.90;;;;;;5030505;28;20033;-53
2023/12/19 02:53:53;;;;;;;21.10;13.90;;;6.20;99.90;;;;;;5029788;28;20076;-53
2023/12/19 02:56:20;;;;;;;25.17;14.07;;;6.20;99.90;;;;;;5030340;28;20010;-52
2023/12/19 02:58:46;;;;;;;22.65;14.55;;;6.20;99.90;;;;;;5029710;28;20386;-53
2023/12/19 03:01:11;;;;;;;23.13;14.43;;;6.20;99.90;;;;;;5030167;28;20040;-53
2023/12/19 03:03:40;;;;;;;26.10;14.82;;;6.20;99.90;;;;;;5030455;28;20021;-53
2023/12/19 03:06:06;;;;;;;28.73;15.82;;;6.20;99.90;;;;;;5012019;28;20014;-50
2023/12/19 03:08:34;;;;;;;28.52;15.63;;;6.10;99.90;;;;;;5015574;28;20505;-51
2023/12/19 03:10:59;;;;;;;25.38;15.98;;;6.10;99.90;;;;;;5034009;28;20501;-51
2023/12/19 03:13:25;;;;;;;28.88;15.95;;;6.10;99.90;;;;;;5035047;28;20304;-51
2023/12/19 03:15:51;;;;;;;28.55;16.50;;;6.10;99.90;;;;;;5033414;28;20037;-53
2023/12/19 03:18:16;;;;;;;27.33;15.60;;;6.10;99.90;;;;;;5034910;28;20025;-50
2023/12/19 03:20:43;;;;;;;24.90;15.23;;;6.10;99.90;;;;;;5034107;28;20520;-50
2023/12/19 03:23:09;;;;;;;25.02;14.88;;;6.10;99.90;;;;;;5029300;28;20394;-54
2023/12/19 03:25:34;;;;;;;25.75;15.07;;;6.10;99.90;;;;;;5034160;28;20040;-52
2023/12/19 03:28:00;;;;;;;22.33;14.50;;;6.10;99.90;;;;;;5033931;28;20018;-53
2023/12/19 03:30:25;;;;;;;26.63;14.25;;;6.10;99.90;;;;;;5035384;28;20140;-53
2023/12/19 03:32:51;;;;;;;26.52;14.38;;;6.10;99.90;;;;;;5034252;28;20017;-52
2023/12/19 03:35:16;;;;;;;23.75;14.13;;;6.10;99.90;;;;;;5034698;28;20021;-52
2023/12/19 03:37:42;;;;;;;25.25;14.98;;;6.10;99.90;;;;;;5033489;28;20112;-52
2023/12/19 03:40:09;;;;;;;24.98;13.02;;;6.10;99.90;;;;;;5033910;28;20013;-52
2023/12/19 03:42:35;;;;;;;25.80;14.77;;;6.10;99.90;;;;;;5032661;28;20023;-53
2023/12/19 03:45:00;;;;;;;26.17;14.00;;;6.10;99.90;;;;;;5033843;28;20025;-53
2023/12/19 03:47:26;;;;;;;25.02;15.18;;;6.10;99.90;;;;;;5034623;28;20483;-51
2023/12/19 03:49:51;;;;;;;25.40;13.27;;;6.10;99.90;;;;;;5033686;28;20051;-52
2023/12/19 03:52:17;;;;;;;21.95;13.77;;;6.10;99.90;;;;;;5035113;28;20079;-50
2023/12/19 03:54:43;;;;;;;26.25;14.57;;;6.10;99.90;;;;;;5034133;28;20064;-51
2023/12/19 03:57:08;;;;;;;25.33;14.63;;;6.10;99.90;;;;;;5032792;28;20021;-50
2023/12/19 03:59:34;;;;;;;24.55;14.43;;;6.10;99.90;;;;;;5035237;28;20025;-49
2023/12/19 04:02:00;;;;;;;23.52;14.90;;;6.10;99.90;;;;;;5034101;28;20510;-50
2023/12/19 04:04:26;;;;;;;28.70;16.08;;;6.10;99.90;;;;;;5035584;28;20427;-52
2023/12/19 04:06:51;;;;;;;30.30;16.05;;;6.10;99.90;;;;;;5033970;28;20044;-52
2023/12/19 04:09:17;;;;;;;27.15;15.02;;;6.10;99.90;;;;;;5017550;28;20105;-54
2023/12/19 04:11:47;;;;;;;24.85;15.65;;;6.10;99.90;;;;;;5034531;28;20018;-51
2023/12/19 04:14:14;;;;;;;25.83;15.98;;;6.10;99.90;;;;;;5033723;28;20063;-52
2023/12/19 04:16:40;;;;;;;27.17;17.40;;;6.10;99.90;;;;;;5034481;28;20037;-53
2023/12/19 04:19:06;;;;;;;29.70;16.77;;;6.00;99.90;;;;;;5032964;28;20025;-54
2023/12/19 04:21:31;;;;;;;26.38;15.82;;;6.00;99.90;;;;;;5035573;28;20028;-54
2023/12/19 04:23:59;;;;;;;28.75;16.95;;;6.00;99.90;;;;;;5034303;28;20049;-55
2023/12/19 04:26:24;;;;;;;27.95;16.55;;;6.00;99.90;;;;;;5035523;28;20501;-54
2023/12/19 04:28:50;;;;;;;25.33;15.07;;;6.10;99.90;;;;;;5034023;28;20030;-54
2023/12/19 04:31:15;;;;;;;26.02;15.40;;;6.10;99.90;;;;;;5034784;28;20034;-49
2023/12/19 04:33:42;;;;;;;25.60;15.60;;;6.10;99.90;;;;;;5034300;28;20040;-52
2023/12/19 04:36:12;;;;;;;29.73;16.10;;;6.10;99.90;;;;;;5033529;28;20025;-52
2023/12/19 04:38:38;;;;;;;25.23;15.35;;;6.10;99.90;;;;;;5035129;28;20078;-50
2023/12/19 04:41:04;;;;;;;26.85;15.68;;;6.10;99.90;;;;;;5013920;28;20388;-52
2023/12/19 04:43:30;;;;;;;23.50;15.32;;;6.10;99.90;;;;;;5034037;28;20029;-52
2023/12/19 04:45:56;;;;;;;22.05;15.30;;;6.10;99.90;;;;;;5033426;28;20104;-53
2023/12/19 04:48:22;;;;;;;22.88;13.82;;;6.10;99.90;;;;;;5035743;28;20022;-50
2023/12/19 04:50:47;;;;;;;24.80;15.13;;;6.10;99.90;;;;;;5034040;28;20023;-51
2023/12/19 04:53:13;;;;;;;26.98;14.38;;;6.10;99.90;;;;;;5034574;28;20025;-52
2023/12/19 04:55:39;;;;;;;28.42;15.65;;;6.10;99.90;;;;;;5034953;28;20029;-51
2023/12/19 04:58:04;;;;;;;21.90;13.80;;;6.10;99.90;;;;;;5033866;28;20021;-52
2023/12/19 05:00:30;;;;;;;21.42;12.93;;;6.10;99.90;;;;;;5035873;28;20025;-53
2023/12/19 05:02:55;;;;;;;23.08;13.63;;;6.20;99.90;;;;;;5033982;28;20022;-51
2023/12/19 05:05:21;;;;;;;20.70;13.32;;;6.20;99.90;;;;;;5035263;28;20104;-53
2023/12/19 05:07:47;;;;;;;24.88;14.60;;;6.20;99.90;;;;;;5034058;28;20018;-54
2023/12/19 05:10:12;;;;;;;25.10;14.52;;;6.20;99.90;;;;;;5034665;28;20036;-53
2023/12/19 05:12:38;;;;;;;21.90;13.82;;;6.20;99.90;;;;;;5036050;28;20031;-53
2023/12/19 05:15:04;;;;;;;22.52;14.02;;;6.20;99.90;;;;;;5033821;28;20358;-51
2023/12/19 05:17:30;;;;;;;21.88;13.50;;;6.20;99.90;;;;;;5035785;28;20032;-53
2023/12/19 05:19:56;;;;;;;23.02;13.13;;;6.20;99.90;;;;;;5016108;28;20021;-54
2023/12/19 05:22:22;;;;;;;25.63;13.65;;;6.30;99.90;;;;;;5035843;28;20524;-54
2023/12/19 05:24:48;;;;;;;22.58;13.48;;;6.30;99.90;;;;;;5032252;28;20017;-54
2023/12/19 05:27:14;;;;;;;24.45;13.63;;;6.30;99.90;;;;;;5034524;28;20052;-53
2023/12/19 05:29:40;;;;;;;20.38;12.93;;;6.30;99.90;;;;;;5035736;28;20534;-55
2023/12/19 05:32:06;;;;;;;19.98;12.35;;;6.20;99.90;;;;;;5033462;28;20021;-54
2023/12/19 05:34:32;;;;;;;22.95;13.60;;;6.20;99.90;;;;;;5035426;28;20560;-54
2023/12/19 05:36:57;;;;;;;20.23;13.13;;;6.20;99.90;;;;;;5032667;28;20048;-53
2023/12/19 05:39:23;;;;;;;21.65;13.75;;;6.20;99.90;;;;;;5034759;28;20225;-55
2023/12/19 05:41:51;;;;;;;21.85;13.20;;;6.30;99.90;;;;;;5022242;28;20048;-55
2023/12/19 05:44:17;;;;;;;29.25;13.40;;;6.30;99.90;;;;;;5034164;28;20663;-54
2023/12/19 05:46:43;;;;;;;20.65;13.00;;;6.30;99.90;;;;;;5033680;28;20025;-54
2023/12/19 05:49:09;;;;;;;20.02;12.65;;;6.30;99.90;;;;;;5029445;28;20510;-53
2023/12/19 05:51:38;;;;;;;22.63;11.93;;;6.30;99.90;;;;;;5030185;28;20108;-54
2023/12/19 05:54:05;;;;;;;19.95;13.60;;;6.30;99.90;;;;;;5032518;28;20101;-52
2023/12/19 05:56:30;;;;;;;21.48;12.73;;;6.30;99.90;;;;;;5032802;28;20048;-53
2023/12/19 05:58:56;;;;;;;17.85;12.43;;;6.30;99.90;;;;;;5032379;28;20053;-52
2023/12/19 06:01:22;;;;;;;18.80;12.13;;;6.30;99.90;;;;;;5031934;28;20030;-52
2023/12/19 06:03:47;;;;;;;22.58;13.68;;;6.30;99.90;;;;;;5015616;28;20079;-54
2023/12/19 06:06:16;;;;;;;20.33;12.43;;;6.40;99.90;;;;;;5030178;28;20021;-54
2023/12/19 06:08:42;;;;;;;18.75;12.00;;;6.40;99.90;;;;;;5034916;28;20032;-51
2023/12/19 06:11:11;;;;;;;21.90;12.60;;;6.40;99.90;;;;;;5033509;28;20140;-51
2023/12/19 06:13:37;;;;;;;21.35;13.13;;;6.40;99.90;;;;;;5031210;28;20024;-52
2023/12/19 06:16:04;;;;;;;21.02;12.32;;;6.40;99.90;;;;;;5032769;28;20033;-53
2023/12/19 06:18:30;;;;;;;19.55;11.68;;;6.40;99.90;;;;;;5032585;28;20049;-52
2023/12/19 06:20:55;;;;;;;23.23;12.80;;;6.40;99.90;;;;;;5033075;28;20024;-53
2023/12/19 06:23:21;;;;;;;22.02;12.23;;;6.40;99.90;;;;;;5034811;28;20487;-51
2023/12/19 06:25:46;;;;;;;21.15;12.45;;;6.40;99.90;;;;;;5033795;28;20287;-53
2023/12/19 06:28:14;;;;;;;17.40;11.38;;;6.40;99.90;;;;;;5031139;28;20104;-53
2023/12/19 06:30:40;;;;;;;17.08;11.35;;;6.40;99.90;;;;;;5035019;28;20045;-54
2023/12/19 06:33:06;;;;;;;17.52;10.80;;;6.40;99.90;;;;;;5033183;28;20041;-50
2023/12/19 06:35:32;;;;;;;17.55;11.20;;;6.50;99.90;;;;;;5035482;28;20087;-55
2023/12/19 06:37:58;;;;;;;17.40;10.82;;;6.50;99.90;;;;;;5033269;28;20017;-51
2023/12/19 06:40:23;;;;;;;15.95;10.88;;;6.50;99.90;;;;;;5034833;28;20033;-53
2023/12/19 06:42:50;;;;;;;17.08;10.85;;;6.50;99.90;;;;;;5033249;28;20025;-52
2023/12/19 06:45:16;;;;;;;14.45;10.60;;;6.50;99.90;;;;;;5033630;28;20080;-53
2023/12/19 06:47:41;;;;;;;15.88;10.18;;;6.60;99.90;;;;;;5035116;28;20021;-53
2023/12/19 06:50:08;;;;;;;15.82;10.88;;;6.50;99.90;;;;;;5015486;28;20072;-52
2023/12/19 06:52:33;;;;;;;18.45;11.20;;;6.60;99.90;;;;;;5033356;28;20082;-49
2023/12/19 06:55:00;;;;;;;16.42;10.63;;;6.60;99.90;;;;;;5032966;28;20537;-48
2023/12/19 06:57:26;;;;;;;20.17;11.10;;;6.70;99.90;;;;;;5030310;28;20033;-50
2023/12/19 06:59:51;;;;;;;13.75;9.60;;;6.70;99.90;;;;;;5026643;28;20025;-50
2023/12/19 07:02:17;;;;;;;16.63;10.50;;;6.70;99.90;;;;;;5026358;28;20052;-50
2023/12/19 07:04:43;;;;;;;14.50;10.02;;;6.70;99.90;;;;;;5026446;28;20033;-49
2023/12/19 07:07:08;;;;;;;17.13;10.23;;;6.70;99.90;;;;;;5033638;28;20075;-50
2023/12/19 07:09:35;;;;;;;17.10;10.20;;;6.70;99.90;;;;;;5030390;28;20032;-50
2023/12/19 07:12:01;;;;;;;16.85;10.60;;;6.70;99.90;;;;;;5033724;28;20442;-52
2023/12/19 07:14:27;;;;;;;16.67;10.52;;;6.70;99.90;;;;;;5036095;28;20025;-50
2023/12/19 07:16:52;;;;;;;14.93;9.40;;;6.60;99.90;;;;;;5033942;28;20120;-50
2023/12/19 07:19:19;;;;;;;15.93;10.68;;;6.70;99.90;;;;;;5034830;28;20096;-54
2023/12/19 07:21:45;;;;;;;14.55;10.02;;;6.60;99.90;;;;;;5035827;28;20025;-53
2023/12/19 07:24:11;;;;;;;15.65;9.65;;;6.60;99.90;;;;;;5033988;28;20378;-52
2023/12/19 07:26:36;;;;;;;17.90;10.63;;;6.70;99.90;;;;;;5036641;28;20025;-51
2023/12/19 07:29:02;;;;;;;14.57;9.90;;;6.70;99.90;;;;;;5031115;28;20515;-53
2023/12/19 07:31:32;;;;;;;16.08;10.55;;;6.70;99.90;;;;;;5034218;28;20018;-54
2023/12/19 07:34:03;;;;;;;17.35;10.60;;;6.70;99.90;;;;;;5034048;28;20013;-52
2023/12/19 07:36:30;;;;;;;14.85;9.93;;;6.70;99.90;;;;;;5032149;28;20081;-53
2023/12/19 07:38:55;;;;;;;17.55;12.25;;;6.70;99.90;;;;;;5034000;28;20057;-51
2023/12/19 07:41:26;;;;;;;17.23;11.45;;;6.70;99.90;;;;;;5035839;28;20033;-50
2023/12/19 07:43:56;;;;;;;19.88;12.70;;;6.70;99.90;;;;;;5017381;28;20617;-53
2023/12/19 07:46:22;;;;;;;19.88;13.05;;;6.70;99.90;;;;;;5030633;28;20041;-53
2023/12/19 07:48:48;;;;;;;21.58;12.07;;;6.70;99.90;;;;;;5023615;28;20021;-53
2023/12/19 07:51:24;;;;;;;19.25;13.32;;;6.60;99.90;;;;;;5034444;28;20249;-53
2023/12/19 07:53:50;;;;;;;22.75;13.93;;;6.60;99.90;;;;;;5037048;28;20049;-53
2023/12/19 07:56:16;;;;;;;25.13;14.20;;;6.50;99.90;;;;;;5037944;28;20538;-53
2023/12/19 07:58:41;;;;;;;24.67;14.95;;;6.50;99.90;;;;;;5022528;28;20128;-53
2023/12/19 08:01:13;;;;;;;21.70;14.25;;;6.50;99.90;;;;;;5019987;28;20032;-53
2023/12/19 08:03:43;;;;;;;21.90;13.90;;;6.50;99.90;;;;;;5031131;28;20072;-54
2023/12/19 08:06:09;;;;;;;24.38;14.95;;;6.40;99.90;;;;;;5034602;28;20148;-54
2023/12/19 08:08:35;;;;;;;29.25;16.13;;;6.40;99.90;;;;;;5034197;28;20053;-54
2023/12/19 08:11:01;;;;;;;24.60;15.38;;;6.30;99.90;;;;;;5038159;28;20029;-54
2023/12/19 08:13:26;;;;;;;23.63;14.90;;;6.30;99.90;;;;;;5040236;28;20120;-53
2023/12/19 08:15:52;;;;;;;23.40;14.75;;;6.30;99.90;;;;;;5030761;28;20486;-53
2023/12/19 08:18:19;;;;;;;23.30;14.40;;;6.30;99.90;;;;;;5038938;28;20083;-51
2023/12/19 08:20:45;;;;;;;23.80;15.13;;;6.30;99.90;;;;;;5040281;28;20364;-53
2023/12/19 08:23:10;;;;;;;23.90;16.08;;;6.30;99.90;;;;;;5038202;28;20084;-54
2023/12/19 08:25:37;;;;;;;24.60;16.35;;;6.30;99.90;;;;;;5022584;28;20021;-51
2023/12/19 08:28:04;;;;;;;24.83;15.57;;;6.30;99.90;;;;;;5037402;28;20022;-50
2023/12/19 08:30:30;;;;;;;24.15;14.88;;;6.20;99.90;;;;;;5040641;28;20056;-52
2023/12/19 08:32:56;;;;;;;24.55;15.23;;;6.30;99.90;;;;;;5038970;28;20040;-52
2023/12/19 08:35:22;;;;;;;25.10;15.95;;;6.30;99.90;;;;;;5039190;28;20175;-53
2023/12/19 08:37:49;;;;;;;24.92;15.10;;;6.30;99.90;;;;;;5036373;28;20033;-53
2023/12/19 08:40:14;;;;;;;26.75;15.98;;;6.30;99.90;;;;;;5020254;28;20021;-53
2023/12/19 08:42:41;;;;;;;25.48;15.80;;;6.30;99.90;;;;;;5037582;28;20513;-51
2023/12/19 08:45:14;;;;;;;26.90;15.00;;;6.30;99.90;;;;;;5037138;28;20025;-54
2023/12/19 08:47:40;;;;;;;23.98;14.68;;;6.30;99.90;;;;;;5027758;28;20021;-51
2023/12/19 08:50:08;;;;;;;27.05;15.52;;;6.30;99.90;;;;;;5027454;28;20052;-53
2023/12/19 08:52:36;;;;;;;24.73;14.95;;;6.30;99.90;;;;;;5027538;28;20022;-52
2023/12/19 08:55:04;;;;;;;22.67;13.70;;;6.30;99.90;;;;;;5027591;28;20033;-53
2023/12/19 08:57:30;;;;;;;24.33;14.65;;;6.40;99.90;;;;;;5039162;28;20122;-53
2023/12/19 08:59:56;;;;;;;22.45;14.85;;;6.40;99.90;;;;;;5037728;28;20068;-53
2023/12/19 09:02:22;;;;;;;24.65;14.80;;;6.40;99.90;;;;;;5038408;28;20493;-52
2023/12/19 09:04:48;;;;;;;22.77;14.40;;;6.40;99.90;;;;;;5039764;28;20155;-54
2023/12/19 09:07:13;;;;;;;27.63;14.93;;;6.40;99.90;;;;;;5035365;28;20024;-53
2023/12/19 09:09:39;;;;;;;20.88;13.55;;;6.50;99.90;;;;;;5023317;28;20021;-53
2023/12/19 09:12:05;;;;;;;22.20;13.38;;;6.50;99.90;;;;;;5031273;28;20109;-52
2023/12/19 09:14:30;;;;;;;21.23;13.38;;;6.50;99.90;;;;;;5040062;28;20025;-53
2023/12/19 09:16:56;;;;;;;21.13;12.27;;;6.60;99.90;;;;;;5031782;28;20041;-51
2023/12/19 09:19:21;;;;;;;23.40;13.10;;;6.60;99.90;;;;;;5039151;28;20498;-52
2023/12/19 09:21:47;;;;;;;20.23;12.55;;;6.60;99.90;;;;;;5034991;28;20021;-53
2023/12/19 09:24:13;;;;;;;18.58;12.18;;;6.60;99.90;;;;;;5038537;28;20026;-54
2023/12/19 09:26:38;;;;;;;19.55;11.00;;;6.70;99.90;;;;;;5041000;28;20079;-52
2023/12/19 09:29:06;;;;;;;16.02;10.27;;;6.70;99.90;;;;;;5021236;28;20036;-53
2023/12/19 09:31:32;;;;;;;15.50;10.27;;;6.80;99.90;;;;;;5041550;28;20063;-54
2023/12/19 09:33:58;;;;;;;16.77;11.05;;;6.80;99.90;;;;;;5039521;28;20029;-53
2023/12/19 09:36:27;;;;;;;18.83;10.65;;;6.80;99.90;;;;;;5039632;28;20382;-54
2023/12/19 09:38:52;;;;;;;16.85;10.38;;;6.90;99.90;;;;;;5039846;28;20098;-51
2023/12/19 09:41:18;;;;;;;16.05;10.02;;;6.90;99.90;;;;;;5039659;28;20433;-51
2023/12/19 09:43:44;;;;;;;18.73;10.75;;;6.90;99.90;;;;;;5041830;28;20545;-53
2023/12/19 09:46:11;;;;;;;16.15;9.80;;;6.90;99.90;;;;;;5037564;28;20390;-53
2023/12/19 09:48:38;;;;;;;16.42;10.15;;;7.00;99.90;;;;;;5027491;28;20028;-54
2023/12/19 09:51:05;;;;;;;16.17;10.27;;;7.00;99.90;;;;;;5038546;28;20025;-53
2023/12/19 09:53:34;;;;;;;13.52;8.93;;;7.00;99.90;;;;;;5041221;28;20032;-54
2023/12/19 09:56:01;;;;;;;17.83;9.63;;;7.00;99.90;;;;;;5038856;28;20040;-53
2023/12/19 09:58:31;;;;;;;12.75;9.10;;;7.10;99.90;;;;;;5039866;28;20057;-54
2023/12/19 10:00:58;;;;;;;14.50;9.20;;;7.10;99.90;;;;;;5039762;28;20025;-53
2023/12/19 10:03:27;;;;;;;15.68;9.80;;;7.10;99.90;;;;;;5040058;28;20083;-50
2023/12/19 10:05:53;;;;;;;14.48;9.15;;;7.10;99.90;;;;;;5040108;28;20021;-50
2023/12/19 10:08:19;;;;;;;12.45;8.55;;;7.10;99.90;;;;;;5039841;28;20028;-51
2023/12/19 10:10:55;;;;;;;13.90;9.43;;;7.10;99.90;;;;;;5041617;28;20021;-53
2023/12/19 10:13:27;;;;;;;12.88;8.48;;;7.20;99.90;;;;;;5039871;28;20101;-53
2023/12/19 10:16:06;;;;;;;15.57;8.82;;;7.20;99.90;;;;;;5035295;28;20029;-54
2023/12/19 10:18:36;;;;;;;13.50;7.93;;;7.30;99.90;;;;;;5035521;28;20029;-54
2023/12/19 10:21:10;;;;;;;13.25;8.30;;;7.30;99.90;;;;;;5040126;28;20724;-53
2023/12/19 10:23:40;;;;;;;12.82;7.95;;;7.30;99.90;;;;;;5016690;28;20640;-53
2023/12/19 10:26:06;;;;;;;10.82;7.60;;;7.30;99.90;;;;;;5020980;28;20223;-54
2023/12/19 10:28:37;;;;;;;12.18;8.50;;;7.30;99.90;;;;;;5041809;28;20031;-54
2023/12/19 10:31:05;;;;;;;14.43;8.77;;;7.30;99.90;;;;;;5022507;28;20060;-52
2023/12/19 10:33:41;;;;;;;14.15;8.43;;;7.30;99.90;;;;;;5041404;28;20037;-54
2023/12/19 10:36:07;;;;;;;14.20;8.93;;;7.40;99.90;;;;;;5039201;28;20040;-52
2023/12/19 10:38:46;;;;;;;12.27;8.35;;;7.30;99.90;;;;;;5041744;28;20066;-51
2023/12/19 10:41:29;;;;;;;13.45;8.23;;;7.30;99.90;;;;;;5039147;28;20079;-54
2023/12/19 10:43:59;;;;;;;13.27;8.63;;;7.30;99.90;;;;;;5041202;28;20017;-53
2023/12/19 10:46:27;;;;;;;13.48;8.88;;;7.30;99.90;;;;;;5022046;28;20044;-50
2023/12/19 10:48:54;;;;;;;17.27;9.80;;;7.20;99.90;;;;;;5040079;28;20032;-52
2023/12/19 10:51:42;;;;;;;12.07;8.50;;;7.20;99.90;;;;;;5028984;28;20117;-53
2023/12/19 10:54:11;;;;;;;14.70;9.52;;;7.20;99.90;;;;;;5039167;28;20056;-54
2023/12/19 10:57:13;;;;;;;12.15;8.60;;;7.20;99.90;;;;;;5031180;28;20024;-53
2023/12/19 11:00:13;;;;;;;13.27;8.32;;;7.10;99.90;;;;;;5020368;28;20037;-53
2023/12/19 11:03:05;;;;;;;15.50;8.90;;;7.10;99.90;;;;;;5032278;28;20521;-54
2023/12/19 11:05:47;;;;;;;14.40;8.70;;;7.10;99.90;;;;;;5030725;28;20059;-52
2023/12/19 11:08:17;;;;;;;11.57;8.13;;;7.10;99.90;;;;;;5029009;28;20017;-54
2023/12/19 11:10:55;;;;;;;;;;;7.00;99.90;;;;;;5027381;28;20471;-53
2023/12/19 11:13:21;;;;;;;13.88;8.95;;;7.10;99.90;;;;;;5034726;28;20302;-53
2023/12/19 11:16:05;;;;;;;14.35;8.82;;;7.00;99.90;;;;;;5042092;28;20083;-53
2023/12/19 11:18:38;;;;;;;11.50;7.90;;;7.00;99.90;;;;;;5039222;28;20029;-53
2023/12/19 11:21:12;;;;;;;12.80;8.52;;;7.00;99.90;;;;;;5024832;28;20021;-51
2023/12/19 11:23:47;;;;;;;12.15;8.40;;;7.00;99.90;;;;;;5026930;28;20032;-50
2023/12/19 11:26:20;;;;;;;15.18;8.65;;;7.00;99.90;;;;;;5025730;28;20099;-51
2023/12/19 11:28:46;;;;;;;13.63;8.82;;;7.00;99.90;;;;;;5028337;28;20018;-51
2023/12/19 11:31:28;;;;;;;13.25;8.85;;;7.00;99.90;;;;;;5031045;28;20437;-53
2023/12/19 11:33:54;;;;;;;13.77;8.90;;;6.90;99.90;;;;;;5045963;28;20088;-53
2023/12/19 11:36:20;;;;;;;13.30;7.75;;;6.90;99.90;;;;;;5043782;28;20495;-53
2023/12/19 11:38:46;;;;;;;11.88;7.18;;;6.80;99.90;;;;;;5046385;28;20082;-52
2023/12/19 11:41:34;;;;;;;13.63;8.48;;;6.80;99.90;;;;;;5043839;28;20583;-53
2023/12/19 11:44:00;;;;;;;15.00;7.95;;;6.80;99.90;;;;;;5045319;28;20025;-52
2023/12/19 11:46:26;;;;;;;12.15;7.68;;;6.80;99.90;;;;;;5044744;28;20029;-53
2023/12/19 11:48:52;;;;;;;10.90;7.00;;;6.70;99.90;;;;;;5046366;28;20102;-54
2023/12/19 11:51:50;;;;;;;11.98;7.07;;;6.80;99.90;;;;;;5031810;28;20109;-54
2023/12/19 11:54:16;;;;;;;11.18;6.47;;;6.80;99.90;;;;;;5043687;28;20504;-53
2023/12/19 11:56:44;;;;;;;12.52;6.97;;;6.80;99.90;;;;;;5045619;28;20170;-53
2023/12/19 11:59:11;;;;;;;11.88;6.32;;;6.80;99.90;;;;;;5034344;28;20120;-53
2023/12/19 12:01:44;;;;;;;9.98;6.60;;;6.90;99.90;;;;;;5040942;28;20025;-53
2023/12/19 12:04:10;;;;;;;8.18;5.47;;;6.80;99.90;;;;;;5044373;28;20025;-52
2023/12/19 12:06:37;;;;;;;9.75;6.80;;;6.80;99.90;;;;;;5033839;28;20112;-53
2023/12/19 12:09:05;;;;;;;8.88;5.70;;;6.80;99.90;;;;;;5044727;28;20027;-53
2023/12/19 12:11:45;;;;;;;13.32;7.03;;;6.70;99.90;;;;;;5045288;28;20310;-52
2023/12/19 12:14:10;;;;;;;11.85;6.38;;;6.70;99.90;;;;;;5044057;28;20017;-54
2023/12/19 12:16:37;;;;;;;11.27;6.32;;;6.70;99.90;;;;;;5045602;28;20576;-53
2023/12/19 12:19:16;;;;;;;11.20;6.63;;;6.70;99.90;;;;;;5039935;28;20136;-53
2023/12/19 12:21:45;;;;;;;11.88;6.82;;;6.70;99.90;;;;;;5034268;28;20040;-53
2023/12/19 12:24:20;;;;;;;13.85;7.40;;;6.70;99.90;;;;;;5033370;28;20079;-54
2023/12/19 12:26:48;;;;;;;9.02;6.20;;;6.70;99.90;;;;;;5028428;28;20018;-53
2023/12/19 12:29:14;;;;;;;7.93;5.88;;;6.70;99.90;;;;;;5027838;28;20026;-54
2023/12/19 12:31:41;;;;;;;10.73;6.38;;;6.70;99.90;;;;;;5045651;28;20454;-52
2023/12/19 12:34:06;;;;;;;8.30;5.32;;;6.70;99.90;;;;;;5022588;28;20044;-53
2023/12/19 12:36:32;;;;;;;9.68;6.85;;;6.70;99.90;;;;;;5044814;28;20029;-53
2023/12/19 12:38:58;;;;;;;10.35;7.03;;;6.70;99.90;;;;;;5035253;28;20186;-52
2023/12/19 12:41:24;;;;;;;11.77;6.70;;;6.60;99.90;;;;;;5043293;28;20021;-53